Time;durP1;ratioP1;P1;durP2;ratioP2;P2;SDS_P1;SDS_P2;PMS_P1;PMS_P2;Temp;Humidity;BMP_temperature;BMP_pressure;BME280_temperature;BME280_humidity;BME280_pressure;Samples;Min_cycle;Max_cycle;Signal;HPM_P1;HPM_P2
2023/10/26 00:01:32;;;;;;;0.40;0.20;;;12.10;99.90;;;;;;4954158;29;20077;-73
2023/10/26 00:03:59;;;;;;;0.45;0.25;;;12.10;99.90;;;;;;4944388;29;20356;-73
2023/10/26 00:06:25;;;;;;;0.17;0.17;;;12.10;99.90;;;;;;4949761;29;20032;-73
2023/10/26 00:08:51;;;;;;;0.77;0.30;;;12.00;99.90;;;;;;4951283;28;20034;-74
2023/10/26 00:11:16;;;;;;;0.15;0.13;;;11.90;99.90;;;;;;4953952;28;20031;-73
2023/10/26 00:13:42;;;;;;;0.10;0.10;;;11.90;99.90;;;;;;4953796;29;20062;-73
2023/10/26 00:16:08;;;;;;;0.20;0.15;;;11.90;99.90;;;;;;4953458;29;20111;-73
2023/10/26 00:18:34;;;;;;;0.40;0.25;;;11.90;99.90;;;;;;4954101;28;20039;-73
2023/10/26 00:21:00;;;;;;;0.93;0.68;;;11.90;99.90;;;;;;4952951;29;20373;-73
2023/10/26 00:23:26;;;;;;;0.20;0.20;;;11.90;99.90;;;;;;4954004;29;20059;-74
2023/10/26 00:25:53;;;;;;;0.80;0.63;;;11.90;99.90;;;;;;4952935;29;20129;-74
2023/10/26 00:28:19;;;;;;;0.20;0.20;;;11.90;99.90;;;;;;4949998;29;20023;-74
2023/10/26 00:30:45;;;;;;;1.20;0.45;;;11.90;99.90;;;;;;4937550;29;20054;-73
2023/10/26 00:33:11;;;;;;;0.13;0.13;;;12.00;99.90;;;;;;4954712;28;20039;-73
2023/10/26 00:35:37;;;;;;;0.90;0.30;;;11.90;99.90;;;;;;4948167;28;20040;-74
2023/10/26 00:38:02;;;;;;;0.10;0.10;;;12.00;99.90;;;;;;4953870;28;20039;-74
2023/10/26 00:40:28;;;;;;;0.20;0.20;;;12.00;99.90;;;;;;4955511;28;20047;-73
2023/10/26 00:43:01;;;;;;;0.10;0.10;;;12.00;99.90;;;;;;4929136;29;20063;-73
2023/10/26 00:45:30;;;;;;;0.28;0.20;;;12.00;99.90;;;;;;4946982;28;20496;-73
2023/10/26 00:47:57;;;;;;;0.65;0.32;;;12.00;99.90;;;;;;4952971;29;20094;-73
2023/10/26 00:50:23;;;;;;;0.13;0.13;;;12.00;99.90;;;;;;4948909;28;20067;-73
2023/10/26 00:52:49;;;;;;;0.30;0.25;;;12.00;99.90;;;;;;4961986;28;20087;-72
2023/10/26 00:55:16;;;;;;;0.60;0.52;;;12.00;99.90;;;;;;4929426;29;20073;-72
2023/10/26 00:57:43;;;;;;;0.93;0.50;;;12.00;99.90;;;;;;4952832;29;20403;-72
2023/10/26 01:00:10;;;;;;;0.10;0.10;;;12.00;99.90;;;;;;4944654;29;20126;-72
2023/10/26 01:02:37;;;;;;;0.57;0.30;;;12.10;99.90;;;;;;4952938;28;20093;-73
2023/10/26 01:05:04;;;;;;;0.90;0.43;;;12.10;99.90;;;;;;4948480;28;20027;-73
2023/10/26 01:07:29;;;;;;;0.00;0.00;;;12.10;99.90;;;;;;4949114;28;20031;-73
2023/10/26 01:09:57;;;;;;;2.28;0.20;;;12.10;99.90;;;;;;4952448;29;20039;-74
2023/10/26 01:12:23;;;;;;;0.10;0.10;;;12.10;99.90;;;;;;4933664;29;20070;-74
2023/10/26 01:14:49;;;;;;;0.20;0.20;;;12.10;99.90;;;;;;4964301;28;20031;-74
2023/10/26 01:17:15;;;;;;;0.10;0.10;;;12.00;99.90;;;;;;4953445;29;20054;-73
2023/10/26 01:19:43;;;;;;;0.10;0.10;;;12.10;99.90;;;;;;4952263;29;20049;-73
2023/10/26 01:22:10;;;;;;;0.30;0.28;;;12.10;99.90;;;;;;4952325;29;20499;-74
2023/10/26 01:24:37;;;;;;;0.20;0.10;;;12.10;99.90;;;;;;4953337;28;20039;-74
2023/10/26 01:27:04;;;;;;;3.13;0.17;;;12.10;99.90;;;;;;4936044;29;20023;-74
2023/10/26 01:29:30;;;;;;;0.43;0.40;;;12.10;99.90;;;;;;4953618;28;20035;-74
2023/10/26 01:31:56;;;;;;;0.15;0.10;;;12.10;99.90;;;;;;4933734;29;20086;-74
2023/10/26 01:34:22;;;;;;;0.30;0.30;;;12.10;99.90;;;;;;4951861;29;20513;-73
2023/10/26 01:36:48;;;;;;;0.57;0.38;;;12.20;99.90;;;;;;4953102;29;20055;-74
2023/10/26 01:39:16;;;;;;;0.55;0.17;;;12.20;99.90;;;;;;4951670;29;20098;-74
2023/10/26 01:41:41;;;;;;;0.35;0.22;;;12.10;99.90;;;;;;4952045;29;20043;-74
2023/10/26 01:44:07;;;;;;;0.17;0.00;;;12.10;99.90;;;;;;4934191;29;20505;-74
2023/10/26 01:46:33;;;;;;;0.60;0.30;;;12.20;99.90;;;;;;4951866;29;20031;-74
2023/10/26 01:49:02;;;;;;;0.20;0.20;;;12.20;99.90;;;;;;4933309;29;20512;-73
2023/10/26 01:51:29;;;;;;;0.38;0.22;;;12.10;99.90;;;;;;4967912;28;20078;-73
2023/10/26 01:53:54;;;;;;;0.08;0.00;;;12.10;99.90;;;;;;4952148;29;20038;-73
2023/10/26 01:56:20;;;;;;;0.43;0.13;;;12.10;99.90;;;;;;4948210;29;20035;-73
2023/10/26 01:58:46;;;;;;;0.32;0.17;;;12.10;99.90;;;;;;4949038;29;20114;-73
2023/10/26 02:01:13;;;;;;;0.15;0.15;;;12.10;99.90;;;;;;4952829;28;20127;-73
2023/10/26 02:03:38;;;;;;;0.30;0.22;;;12.20;99.90;;;;;;4951767;29;20031;-74
2023/10/26 02:06:05;;;;;;;0.85;0.22;;;12.20;99.90;;;;;;4934785;29;20495;-75
2023/10/26 02:08:33;;;;;;;0.60;0.35;;;12.20;99.90;;;;;;4949061;29;20028;-74
2023/10/26 02:10:59;;;;;;;0.30;0.20;;;12.20;99.90;;;;;;4964340;28;20042;-74
2023/10/26 02:13:24;;;;;;;1.48;0.30;;;12.20;99.90;;;;;;4951928;29;20020;-75
2023/10/26 02:15:50;;;;;;;0.47;0.32;;;12.20;99.90;;;;;;4950578;29;20035;-74
2023/10/26 02:18:16;;;;;;;0.65;0.32;;;12.20;99.90;;;;;;4951812;29;20027;-74
2023/10/26 02:20:41;;;;;;;0.95;0.32;;;12.30;99.90;;;;;;4951188;29;20070;-74
2023/10/26 02:23:08;;;;;;;2.65;0.63;;;12.30;99.90;;;;;;4952352;29;20058;-74
2023/10/26 02:25:33;;;;;;;0.73;0.40;;;12.20;99.90;;;;;;4952703;28;20042;-74
2023/10/26 02:27:59;;;;;;;0.60;0.50;;;12.20;99.90;;;;;;4933256;29;20031;-74
2023/10/26 02:30:25;;;;;;;0.82;0.70;;;12.30;99.90;;;;;;4951863;29;20027;-74
2023/10/26 02:32:50;;;;;;;1.63;0.90;;;12.30;99.90;;;;;;4947990;29;20504;-74
2023/10/26 02:35:20;;;;;;;4.93;1.63;;;12.30;99.90;;;;;;4967348;28;20387;-74
2023/10/26 02:37:47;;;;;;;2.53;1.30;;;12.20;99.90;;;;;;4947352;29;20087;-75
2023/10/26 02:40:12;;;;;;;1.58;1.20;;;12.20;99.90;;;;;;4966540;28;20024;-75
2023/10/26 02:42:41;;;;;;;3.67;1.67;;;12.10;99.90;;;;;;4952560;28;20031;-75
2023/10/26 02:45:10;;;;;;;3.83;1.25;;;12.10;99.90;;;;;;4951407;29;20460;-75
2023/10/26 02:47:37;;;;;;;2.80;1.17;;;12.10;99.90;;;;;;4935164;29;20047;-75
2023/10/26 02:50:05;;;;;;;1.10;0.98;;;12.00;99.90;;;;;;4946720;29;20036;-75
2023/10/26 02:52:31;;;;;;;4.85;0.95;;;12.00;99.90;;;;;;4952603;28;20039;-75
2023/10/26 02:54:57;;;;;;;2.05;1.15;;;12.00;99.90;;;;;;4952930;28;20031;-75
2023/10/26 02:57:22;;;;;;;1.65;1.10;;;12.00;99.90;;;;;;4951194;29;20034;-75
2023/10/26 02:59:48;;;;;;;2.20;1.65;;;12.00;99.90;;;;;;4952046;29;20035;-75
2023/10/26 03:02:14;;;;;;;2.78;1.42;;;12.00;99.90;;;;;;4949369;29;20043;-75
2023/10/26 03:04:39;;;;;;;3.17;1.17;;;11.90;99.90;;;;;;4951890;28;20031;-74
2023/10/26 03:07:05;;;;;;;2.53;1.35;;;11.80;99.90;;;;;;4934650;29;20046;-75
2023/10/26 03:09:31;;;;;;;2.53;1.10;;;11.80;99.90;;;;;;4952992;28;20050;-75
2023/10/26 03:11:57;;;;;;;7.35;1.15;;;11.90;99.90;;;;;;4934830;28;20031;-75
2023/10/26 03:14:23;;;;;;;1.30;1.05;;;11.90;99.90;;;;;;4953164;29;20032;-75
2023/10/26 03:16:49;;;;;;;1.05;0.88;;;11.90;99.90;;;;;;4936737;29;20046;-75
2023/10/26 03:19:14;;;;;;;1.75;1.17;;;11.90;99.90;;;;;;4953425;29;20024;-75
2023/10/26 03:21:40;;;;;;;11.15;1.88;;;11.90;99.90;;;;;;4956080;28;20137;-75
2023/10/26 03:24:06;;;;;;;1.65;1.10;;;11.90;99.90;;;;;;4954998;29;20035;-75
2023/10/26 03:26:32;;;;;;;1.70;1.25;;;11.90;99.90;;;;;;4955656;28;20023;-74
2023/10/26 03:28:58;;;;;;;3.33;1.27;;;11.90;99.90;;;;;;4952257;29;20090;-74
2023/10/26 03:31:24;;;;;;;1.05;0.65;;;11.90;99.90;;;;;;4955357;28;20041;-74
2023/10/26 03:33:50;;;;;;;1.50;0.90;;;11.80;99.90;;;;;;4951520;29;20035;-74
2023/10/26 03:36:18;;;;;;;2.67;1.50;;;11.80;99.90;;;;;;4954347;29;20061;-74
2023/10/26 03:38:45;;;;;;;0.77;0.73;;;11.80;99.90;;;;;;4956512;29;20042;-76
2023/10/26 03:41:12;;;;;;;2.33;1.10;;;11.70;99.90;;;;;;4936939;29;20118;-75
2023/10/26 03:43:37;;;;;;;2.38;1.25;;;11.70;99.90;;;;;;4951735;29;20060;-75
2023/10/26 03:46:04;;;;;;;3.40;1.83;;;11.80;99.90;;;;;;4953273;29;20035;-74
2023/10/26 03:48:35;;;;;;;1.00;0.80;;;11.80;99.90;;;;;;4954791;29;20039;-75
2023/10/26 03:51:02;;;;;;;2.17;1.33;;;11.80;99.90;;;;;;4953840;29;20058;-74
2023/10/26 03:53:28;;;;;;;1.98;1.13;;;11.80;99.90;;;;;;4955552;29;20102;-74
2023/10/26 03:55:57;;;;;;;1.65;1.20;;;11.80;99.90;;;;;;4954641;28;20035;-75
2023/10/26 03:58:23;;;;;;;1.90;0.90;;;11.80;99.90;;;;;;4943293;29;20039;-74
2023/10/26 04:00:51;;;;;;;1.35;0.55;;;11.80;99.90;;;;;;4951300;29;20494;-75
2023/10/26 04:03:17;;;;;;;3.05;1.17;;;11.70;99.90;;;;;;4955745;28;20105;-74
2023/10/26 04:05:42;;;;;;;6.07;1.30;;;11.70;99.90;;;;;;4950762;29;20330;-73
2023/10/26 04:08:09;;;;;;;1.70;0.88;;;11.70;99.90;;;;;;4955432;29;20035;-74
2023/10/26 04:10:36;;;;;;;1.80;0.80;;;11.70;99.90;;;;;;4951309;28;20039;-75
2023/10/26 04:13:02;;;;;;;0.80;0.63;;;11.70;99.90;;;;;;4954711;29;20550;-75
2023/10/26 04:15:28;;;;;;;2.90;1.58;;;11.70;99.90;;;;;;4950760;29;20031;-75
2023/10/26 04:17:53;;;;;;;1.08;0.80;;;11.60;99.90;;;;;;4953806;29;20061;-75
2023/10/26 04:20:22;;;;;;;1.73;1.08;;;11.60;99.90;;;;;;4949447;28;20071;-75
2023/10/26 04:22:48;;;;;;;4.72;1.30;;;11.60;99.90;;;;;;4953338;28;20089;-75
2023/10/26 04:25:14;;;;;;;3.55;1.38;;;11.60;99.90;;;;;;4955485;28;20031;-74
2023/10/26 04:27:40;;;;;;;2.08;1.33;;;11.60;99.90;;;;;;4962769;28;20042;-74
2023/10/26 04:30:07;;;;;;;3.88;1.35;;;11.60;99.90;;;;;;4962050;28;20028;-74
2023/10/26 04:32:33;;;;;;;3.33;1.08;;;11.70;99.90;;;;;;4963041;28;20035;-75
2023/10/26 04:34:59;;;;;;;1.85;1.10;;;11.60;99.90;;;;;;4961278;28;20514;-74
2023/10/26 04:37:25;;;;;;;2.20;1.20;;;11.60;99.90;;;;;;4960975;28;20062;-74
2023/10/26 04:39:51;;;;;;;2.22;1.52;;;11.60;99.90;;;;;;4962060;28;20030;-75
2023/10/26 04:42:18;;;;;;;4.72;1.40;;;11.60;99.90;;;;;;4961072;28;20098;-74
2023/10/26 04:44:43;;;;;;;3.05;1.25;;;11.60;99.90;;;;;;4954901;28;20038;-74
2023/10/26 04:47:09;;;;;;;1.70;1.20;;;11.60;99.90;;;;;;4967347;28;20035;-76
2023/10/26 04:49:38;;;;;;;2.03;1.30;;;11.60;99.90;;;;;;4954765;28;20039;-77
2023/10/26 04:52:04;;;;;;;1.20;0.70;;;11.60;99.90;;;;;;4951236;29;20044;-77
2023/10/26 04:54:29;;;;;;;1.13;0.93;;;11.60;99.90;;;;;;4958814;28;20027;-75
2023/10/26 04:56:55;;;;;;;2.88;1.23;;;11.70;99.90;;;;;;4950921;29;20114;-76
2023/10/26 04:59:21;;;;;;;2.15;1.00;;;11.60;99.90;;;;;;4963229;28;20373;-79
2023/10/26 05:01:47;;;;;;;2.22;1.27;;;11.60;99.90;;;;;;4954816;29;20039;-74
2023/10/26 05:04:13;;;;;;;3.15;1.83;;;11.60;99.90;;;;;;4962194;28;20042;-76
2023/10/26 05:06:39;;;;;;;3.15;1.63;;;11.60;99.90;;;;;;4953283;28;20035;-71
2023/10/26 05:09:05;;;;;;;1.70;0.90;;;11.70;99.90;;;;;;4961113;28;20098;-71
2023/10/26 05:11:34;;;;;;;3.30;1.27;;;11.60;99.90;;;;;;4954940;28;20038;-72
2023/10/26 05:14:03;;;;;;;12.80;5.22;;;11.60;99.90;;;;;;4956737;28;20035;-72
2023/10/26 05:16:28;;;;;;;4.97;1.98;;;11.70;99.90;;;;;;4945881;28;20531;-72
2023/10/26 05:18:54;;;;;;;3.40;1.73;;;11.60;99.90;;;;;;4955747;28;20043;-71
2023/10/26 05:21:23;;;;;;;3.53;1.55;;;11.60;99.90;;;;;;4963669;28;20031;-73
2023/10/26 05:23:48;;;;;;;2.70;1.40;;;11.60;99.90;;;;;;4958972;28;20039;-72
2023/10/26 05:26:14;;;;;;;2.10;1.15;;;11.50;99.90;;;;;;4954974;28;20032;-70
2023/10/26 05:28:40;;;;;;;8.63;1.65;;;11.50;99.90;;;;;;4969608;28;20450;-72
2023/10/26 05:31:06;;;;;;;3.05;1.20;;;11.50;99.90;;;;;;4955623;28;20035;-70
2023/10/26 05:33:31;;;;;;;2.95;1.55;;;11.50;99.90;;;;;;4953149;28;20035;-71
2023/10/26 05:35:57;;;;;;;2.83;1.27;;;11.50;99.90;;;;;;4960385;28;20379;-69
2023/10/26 05:38:23;;;;;;;6.15;1.10;;;11.50;99.90;;;;;;4945119;29;20122;-70
2023/10/26 05:40:55;;;;;;;2.67;1.63;;;11.60;99.90;;;;;;4960010;28;20101;-73
2023/10/26 05:43:22;;;;;;;2.05;1.10;;;11.60;99.90;;;;;;4957135;28;20031;-73
2023/10/26 05:46:02;;;;;;;3.22;1.10;;;11.60;99.90;;;;;;4959824;28;21913;-73
2023/10/26 05:48:34;;;;;;;4.30;1.27;;;11.60;99.90;;;;;;4968561;28;20050;-72
2023/10/26 05:50:59;;;;;;;3.75;1.70;;;11.60;99.90;;;;;;4961762;28;20028;-71
2023/10/26 05:53:25;;;;;;;2.72;1.63;;;11.70;99.90;;;;;;4969511;28;20037;-71
2023/10/26 05:55:58;;;;;;;2.45;1.35;;;11.70;99.90;;;;;;4964887;28;20041;-73
2023/10/26 05:58:26;;;;;;;6.93;1.90;;;11.60;99.90;;;;;;4967776;28;20046;-72
2023/10/26 06:00:51;;;;;;;4.47;1.70;;;11.60;99.90;;;;;;4956909;28;20099;-72
2023/10/26 06:03:17;;;;;;;6.85;2.30;;;11.70;99.90;;;;;;4964529;28;20035;-72
2023/10/26 06:05:43;;;;;;;2.28;1.40;;;11.70;99.90;;;;;;4950928;28;20543;-72
2023/10/26 06:08:09;;;;;;;3.42;1.85;;;11.70;99.90;;;;;;4956247;28;20061;-75
2023/10/26 06:10:34;;;;;;;2.60;1.65;;;11.70;99.90;;;;;;4961742;28;20039;-72
2023/10/26 06:13:00;;;;;;;3.00;1.60;;;11.60;99.90;;;;;;4958695;28;20508;-71
2023/10/26 06:15:26;;;;;;;2.72;1.60;;;11.60;99.90;;;;;;4964783;28;20030;-71
2023/10/26 06:17:52;;;;;;;4.65;1.80;;;11.50;99.90;;;;;;4920773;28;20039;-72
2023/10/26 06:20:17;;;;;;;3.03;1.73;;;11.50;99.90;;;;;;4957075;28;20038;-72
2023/10/26 06:22:43;;;;;;;4.90;1.67;;;11.70;99.90;;;;;;4952090;28;20031;-72
2023/10/26 06:25:09;;;;;;;2.33;1.65;;;11.60;99.90;;;;;;4953767;28;20061;-72
2023/10/26 06:27:35;;;;;;;3.08;1.88;;;11.80;99.90;;;;;;4944992;29;20042;-72
2023/10/26 06:30:03;;;;;;;2.28;1.40;;;11.90;99.90;;;;;;4968829;28;20027;-72
2023/10/26 06:32:28;;;;;;;5.93;1.58;;;11.70;99.90;;;;;;4968059;28;20035;-72
2023/10/26 06:34:56;;;;;;;7.05;2.67;;;11.70;99.90;;;;;;4959295;28;20038;-72
2023/10/26 06:37:23;;;;;;;3.97;1.80;;;11.70;99.90;;;;;;4951209;28;20023;-72
2023/10/26 06:39:48;;;;;;;2.33;1.63;;;11.60;99.90;;;;;;4952609;28;20047;-73
2023/10/26 06:42:14;;;;;;;3.72;1.70;;;11.50;99.90;;;;;;4953818;28;20139;-72
2023/10/26 06:44:40;;;;;;;6.15;2.28;;;11.50;99.90;;;;;;4969621;28;20061;-72
2023/10/26 06:47:06;;;;;;;4.13;2.08;;;11.40;99.90;;;;;;4968240;28;20475;-72
2023/10/26 06:49:32;;;;;;;4.05;1.60;;;11.40;99.90;;;;;;4973384;28;20031;-72
2023/10/26 06:51:58;;;;;;;3.20;1.83;;;11.40;99.90;;;;;;4968071;28;20443;-72
2023/10/26 06:54:24;;;;;;;3.25;1.67;;;11.40;99.90;;;;;;4950899;29;20399;-71
2023/10/26 06:56:49;;;;;;;2.88;1.67;;;11.40;99.90;;;;;;4956814;28;20035;-71
2023/10/26 06:59:15;;;;;;;3.65;1.50;;;11.30;99.90;;;;;;4958768;28;20031;-71
2023/10/26 07:01:41;;;;;;;2.90;1.67;;;11.30;99.90;;;;;;4969599;28;20086;-71
2023/10/26 07:04:07;;;;;;;3.25;1.70;;;11.40;99.90;;;;;;4975321;28;20491;-71
2023/10/26 07:06:32;;;;;;;1.63;1.15;;;11.50;99.90;;;;;;4980181;28;20042;-71
2023/10/26 07:09:00;;;;;;;2.67;1.83;;;11.40;99.90;;;;;;4972650;28;20035;-73
2023/10/26 07:11:26;;;;;;;3.08;1.67;;;11.50;99.90;;;;;;4948644;28;20119;-70
2023/10/26 07:13:52;;;;;;;2.55;1.63;;;11.40;99.90;;;;;;4967117;28;20109;-71
2023/10/26 07:16:18;;;;;;;3.00;1.63;;;11.30;99.90;;;;;;4955873;28;20738;-71
2023/10/26 07:18:43;;;;;;;3.28;1.48;;;11.40;99.90;;;;;;4965810;28;20057;-71
2023/10/26 07:21:10;;;;;;;2.50;1.80;;;11.40;99.90;;;;;;4963062;28;20126;-71
2023/10/26 07:23:36;;;;;;;3.33;1.65;;;11.70;99.90;;;;;;4951797;28;20062;-71
2023/10/26 07:26:02;;;;;;;4.03;2.20;;;11.70;99.90;;;;;;4965021;28;20084;-71
2023/10/26 07:28:28;;;;;;;5.70;2.08;;;11.80;99.90;;;;;;4959057;28;20027;-72
2023/10/26 07:30:54;;;;;;;4.50;1.77;;;11.90;99.90;;;;;;4969902;28;20065;-71
2023/10/26 07:33:20;;;;;;;2.75;1.80;;;11.60;99.90;;;;;;4954414;28;20419;-72
2023/10/26 07:35:51;;;;;;;3.45;1.65;;;11.70;99.90;;;;;;4968249;28;20514;-71
2023/10/26 07:38:17;;;;;;;3.45;1.80;;;11.70;99.90;;;;;;4953649;28;20102;-72
2023/10/26 07:40:53;;;;;;;5.32;1.85;;;11.80;99.90;;;;;;4971037;28;20039;-72
2023/10/26 07:43:20;;;;;;;2.88;1.75;;;11.70;99.90;;;;;;4985829;28;20448;-72
2023/10/26 07:45:47;;;;;;;2.72;1.55;;;11.70;99.90;;;;;;4973623;28;20110;-72
2023/10/26 07:48:13;;;;;;;7.82;1.95;;;11.80;99.90;;;;;;4939114;29;20085;-71
2023/10/26 07:50:39;;;;;;;3.40;1.55;;;11.60;99.90;;;;;;4963440;28;20039;-70
2023/10/26 07:53:05;;;;;;;3.05;1.80;;;11.50;99.90;;;;;;4952646;28;20038;-72
2023/10/26 07:55:32;;;;;;;2.53;1.67;;;11.60;99.90;;;;;;4950856;28;20038;-72
2023/10/26 07:57:57;;;;;;;2.65;1.50;;;11.70;99.90;;;;;;4962809;28;20036;-72
2023/10/26 08:00:23;;;;;;;3.78;1.70;;;11.70;99.90;;;;;;4937729;29;20027;-71
2023/10/26 08:02:49;;;;;;;2.67;1.70;;;11.70;99.90;;;;;;4956305;28;20407;-72
2023/10/26 08:05:15;;;;;;;7.40;2.35;;;11.80;99.90;;;;;;4953737;28;20027;-72
2023/10/26 08:07:41;;;;;;;4.45;1.65;;;12.00;99.90;;;;;;4954499;28;20094;-72
2023/10/26 08:10:11;;;;;;;2.65;1.20;;;11.80;99.90;;;;;;4953878;28;20023;-71
2023/10/26 08:12:37;;;;;;;4.90;2.13;;;11.90;99.90;;;;;;4945248;28;20373;-72
2023/10/26 08:15:04;;;;;;;4.20;2.05;;;12.10;99.90;;;;;;4953323;28;20046;-72
2023/10/26 08:17:35;;;;;;;3.78;1.45;;;12.40;99.90;;;;;;4951522;28;20037;-72
2023/10/26 08:20:04;;;;;;;4.50;2.08;;;12.50;99.90;;;;;;4956378;28;20031;-72
2023/10/26 08:22:31;;;;;;;6.38;2.30;;;12.50;99.90;;;;;;4954432;28;20043;-71
2023/10/26 08:24:57;;;;;;;1.98;1.35;;;12.40;99.90;;;;;;4955970;28;20028;-71
2023/10/26 08:27:24;;;;;;;4.65;1.83;;;12.40;99.90;;;;;;4960347;28;20034;-72
2023/10/26 08:29:52;;;;;;;2.53;1.65;;;12.30;99.90;;;;;;4966248;28;20065;-72
2023/10/26 08:32:19;;;;;;;3.47;1.48;;;12.30;99.90;;;;;;4960683;28;20446;-73
2023/10/26 08:34:46;;;;;;;3.17;1.90;;;12.30;99.90;;;;;;4960134;28;20031;-72
2023/10/26 08:37:12;;;;;;;4.00;1.92;;;12.70;99.90;;;;;;4955499;28;20058;-72
2023/10/26 08:39:39;;;;;;;5.93;2.95;;;12.80;99.90;;;;;;4961511;28;20403;-71
2023/10/26 08:42:05;;;;;;;4.22;1.63;;;12.70;99.90;;;;;;4960898;28;20035;-71
2023/10/26 08:44:32;;;;;;;4.35;1.83;;;12.50;99.90;;;;;;4952460;28;20031;-72
2023/10/26 08:47:05;;;;;;;4.82;2.13;;;12.80;99.90;;;;;;4953247;28;20031;-73
2023/10/26 08:49:32;;;;;;;4.47;1.60;;;12.90;99.90;;;;;;4964084;28;20494;-72
2023/10/26 08:51:59;;;;;;;3.08;1.60;;;13.00;99.90;;;;;;4960826;28;20471;-72
2023/10/26 08:54:28;;;;;;;5.20;2.03;;;13.10;99.90;;;;;;4957102;28;20400;-73
2023/10/26 08:56:54;;;;;;;2.90;1.52;;;13.00;99.90;;;;;;4951627;28;20710;-72
2023/10/26 08:59:23;;;;;;;3.78;1.77;;;12.40;99.90;;;;;;4954763;28;20129;-72
2023/10/26 09:01:49;;;;;;;7.13;2.35;;;12.50;99.90;;;;;;4957347;28;20122;-72
2023/10/26 09:04:15;;;;;;;5.38;1.90;;;12.50;99.90;;;;;;4952965;28;20034;-71
2023/10/26 09:06:48;;;;;;;8.85;2.25;;;12.70;99.90;;;;;;4957763;28;20031;-71
2023/10/26 09:09:16;;;;;;;6.10;2.38;;;12.80;99.90;;;;;;4954393;28;20027;-71
2023/10/26 09:11:48;;;;;;;5.07;1.48;;;12.60;99.90;;;;;;4952098;28;20475;-71
2023/10/26 09:14:16;;;;;;;4.40;2.03;;;12.70;99.90;;;;;;4951542;28;20121;-72
2023/10/26 09:16:45;;;;;;;2.42;1.45;;;12.80;99.90;;;;;;4949475;28;20030;-70
2023/10/26 09:19:18;;;;;;;5.55;3.22;;;12.50;99.90;;;;;;4961451;28;20502;-70
2023/10/26 09:21:57;;;;;;;3.35;1.90;;;12.60;99.90;;;;;;4955933;28;20039;-72
2023/10/26 09:24:29;;;;;;;4.53;2.05;;;12.70;99.90;;;;;;4956311;28;20027;-71
2023/10/26 09:26:59;;;;;;;2.75;1.77;;;12.80;99.90;;;;;;4955220;28;20038;-71
2023/10/26 09:29:35;;;;;;;3.78;2.03;;;12.60;99.90;;;;;;4949195;28;20027;-72
2023/10/26 09:32:01;;;;;;;4.65;1.83;;;12.70;99.90;;;;;;4961520;28;20039;-71
2023/10/26 09:34:27;;;;;;;4.60;2.05;;;12.70;99.90;;;;;;4965287;28;20039;-72
2023/10/26 09:37:04;;;;;;;4.63;2.17;;;12.70;99.90;;;;;;4963565;28;20708;-71
2023/10/26 09:39:35;;;;;;;3.85;1.42;;;12.70;99.90;;;;;;4959296;28;20053;-70
2023/10/26 09:42:02;;;;;;;4.05;2.25;;;12.70;99.90;;;;;;4970404;28;20028;-71
2023/10/26 09:44:29;;;;;;;10.02;2.17;;;12.70;99.90;;;;;;4962387;28;20034;-72
2023/10/26 09:46:56;;;;;;;7.93;1.98;;;12.50;99.90;;;;;;4949888;28;20035;-70
2023/10/26 09:49:26;;;;;;;5.63;1.95;;;12.50;99.90;;;;;;4971489;28;20048;-71
2023/10/26 09:51:53;;;;;;;3.30;1.92;;;12.40;99.90;;;;;;4967450;28;20487;-72
2023/10/26 09:54:24;;;;;;;6.35;2.20;;;12.40;99.90;;;;;;4969085;28;20042;-69
2023/10/26 09:56:58;;;;;;;5.22;2.65;;;12.40;99.90;;;;;;4967654;28;20047;-71
2023/10/26 09:59:25;;;;;;;3.60;2.00;;;12.40;99.90;;;;;;4980496;28;20077;-71
2023/10/26 10:01:50;;;;;;;7.15;3.25;;;12.70;99.90;;;;;;4961076;28;20448;-70
2023/10/26 10:04:33;;;;;;;4.93;2.15;;;12.60;99.90;;;;;;4952361;28;20120;-71
2023/10/26 10:07:00;;;;;;;5.78;2.58;;;12.80;99.90;;;;;;4972845;28;20035;-70
2023/10/26 10:09:27;;;;;;;5.15;1.92;;;12.70;99.90;;;;;;4965995;28;20030;-71
2023/10/26 10:12:11;;;;;;;3.40;2.22;;;12.60;99.90;;;;;;4968942;28;20097;-72
2023/10/26 10:14:51;;;;;;;5.13;2.53;;;12.70;99.90;;;;;;4957617;28;20033;-72
2023/10/26 10:17:18;;;;;;;3.97;1.70;;;12.60;99.90;;;;;;4963748;28;20424;-72
2023/10/26 10:20:13;;;;;;;2.60;1.58;;;12.70;99.90;;;;;;4951130;28;20625;-71
2023/10/26 10:22:48;;;;;;;2.17;1.45;;;12.60;99.90;;;;;;4969079;28;20047;-72
2023/10/26 10:25:17;;;;;;;11.20;1.80;;;12.70;99.90;;;;;;4965415;28;20031;-72
2023/10/26 10:27:49;;;;;;;2.17;1.08;;;12.70;99.90;;;;;;4972654;28;20478;-72
2023/10/26 10:30:19;;;;;;;2.40;1.00;;;12.70;99.90;;;;;;4964442;28;20420;-72
2023/10/26 10:32:46;;;;;;;7.57;1.33;;;12.70;99.90;;;;;;4972856;28;20034;-72
2023/10/26 10:35:21;;;;;;;2.90;1.48;;;12.70;99.90;;;;;;4957518;28;20067;-70
2023/10/26 10:38:24;;;;;;;2.97;1.15;;;12.90;99.90;;;;;;4961056;28;20038;-72
2023/10/26 10:40:58;;;;;;;7.05;1.48;;;12.90;99.90;;;;;;4962841;28;20117;-71
2023/10/26 10:43:40;;;;;;;9.93;1.65;;;13.00;99.90;;;;;;4963409;28;20035;-71
2023/10/26 10:46:26;;;;;;;1.50;0.95;;;13.10;99.90;;;;;;4963741;28;20050;-72
2023/10/26 10:48:57;;;;;;;2.75;1.27;;;13.20;99.90;;;;;;4966137;28;20081;-71
2023/10/26 10:51:29;;;;;;;4.27;1.53;;;13.00;99.90;;;;;;4957362;28;20087;-71
2023/10/26 10:53:55;;;;;;;2.15;1.38;;;13.00;99.90;;;;;;4960523;28;20378;-71
2023/10/26 10:56:23;;;;;;;5.90;2.05;;;12.90;99.90;;;;;;4958406;28;20075;-71
2023/10/26 10:58:52;;;;;;;3.30;1.58;;;12.90;99.90;;;;;;4970531;28;20031;-71
2023/10/26 11:01:20;;;;;;;2.83;1.23;;;13.10;99.90;;;;;;4973622;28;20042;-72
2023/10/26 11:03:47;;;;;;;2.92;1.50;;;13.20;99.90;;;;;;4970383;28;20463;-71
2023/10/26 11:06:18;;;;;;;2.83;1.25;;;13.40;99.90;;;;;;4961075;28;20178;-78
2023/10/26 11:08:44;;;;;;;3.65;1.42;;;13.50;99.90;;;;;;4954764;28;20035;-74
2023/10/26 11:11:26;;;;;;;1.60;0.88;;;13.40;99.90;;;;;;4951492;29;20046;-74
2023/10/26 11:14:09;;;;;;;4.70;1.15;;;13.40;99.90;;;;;;4940529;29;20440;-74
2023/10/26 11:16:41;;;;;;;3.50;1.52;;;13.30;99.90;;;;;;4957754;28;20053;-73
2023/10/26 11:19:07;;;;;;;5.32;1.77;;;13.10;99.90;;;;;;4967925;28;20038;-73
2023/10/26 11:21:33;;;;;;;2.50;1.30;;;13.10;99.90;;;;;;4958001;28;20062;-73
2023/10/26 11:24:02;;;;;;;4.65;1.92;;;13.20;99.90;;;;;;4971481;28;20495;-74
2023/10/26 11:26:28;;;;;;;5.88;1.40;;;13.20;99.90;;;;;;4951630;28;20031;-75
2023/10/26 11:28:54;;;;;;;2.78;1.10;;;13.10;99.90;;;;;;4952718;28;20039;-74
2023/10/26 11:31:41;;;;;;;7.40;1.20;;;13.00;99.90;;;;;;4947284;28;20027;-73
2023/10/26 11:34:09;;;;;;;1.75;1.20;;;13.00;99.90;;;;;;4961285;28;20038;-74
2023/10/26 11:36:38;;;;;;;2.65;1.52;;;12.70;99.90;;;;;;4949560;28;20043;-73
2023/10/26 11:39:05;;;;;;;1.70;0.98;;;12.60;99.90;;;;;;4943764;28;20074;-75
2023/10/26 11:41:33;;;;;;;5.18;1.45;;;12.50;99.90;;;;;;4955092;28;20042;-56
2023/10/26 11:43:59;;;;;;;;;;;12.60;99.90;;;;;;4969327;28;20207;-52
2023/10/26 11:46:35;;;;;;;2.75;1.42;;;12.60;99.90;;;;;;4954729;28;20461;-70
2023/10/26 11:49:05;;;;;;;9.43;1.70;;;12.60;99.90;;;;;;4959841;28;20526;-71
2023/10/26 11:51:31;;;;;;;1.25;0.80;;;12.40;99.90;;;;;;4948006;28;20038;-71
2023/10/26 11:54:12;;;;;;;2.78;1.42;;;12.30;99.90;;;;;;4960744;28;20031;-71
2023/10/26 11:56:37;;;;;;;1.33;0.73;;;12.20;99.90;;;;;;4967430;28;20488;-71
2023/10/26 11:59:03;;;;;;;1.80;1.13;;;12.30;99.90;;;;;;4965321;28;20035;-71
2023/10/26 12:01:29;;;;;;;1.10;0.82;;;12.20;99.90;;;;;;4961511;28;20420;-71
2023/10/26 12:03:55;;;;;;;1.85;1.00;;;12.30;99.90;;;;;;4961213;28;20101;-72
2023/10/26 12:06:20;;;;;;;1.63;0.88;;;12.30;99.90;;;;;;4944706;29;20024;-72
2023/10/26 12:08:46;;;;;;;1.95;1.00;;;12.30;99.90;;;;;;4965655;28;20030;-71
2023/10/26 12:11:12;;;;;;;2.55;1.42;;;12.30;99.90;;;;;;4963445;28;20103;-71
2023/10/26 12:13:38;;;;;;;2.35;0.77;;;12.30;99.90;;;;;;4961722;28;20222;-71
2023/10/26 12:16:05;;;;;;;1.65;1.55;;;12.40;99.90;;;;;;4970487;28;20089;-71
2023/10/26 12:18:34;;;;;;;2.38;1.27;;;12.40;99.90;;;;;;4961605;28;20076;-71
2023/10/26 12:20:59;;;;;;;1.60;1.15;;;12.40;99.90;;;;;;4963669;28;20039;-71
2023/10/26 12:23:25;;;;;;;4.25;1.33;;;12.50;99.90;;;;;;4945376;28;20390;-71
2023/10/26 12:25:51;;;;;;;0.88;0.57;;;12.50;99.90;;;;;;4957658;28;20042;-72
2023/10/26 12:28:18;;;;;;;1.02;0.63;;;12.70;99.90;;;;;;4968126;28;20031;-71
2023/10/26 12:30:45;;;;;;;1.05;0.77;;;12.80;99.90;;;;;;4961343;28;20106;-71
2023/10/26 12:33:12;;;;;;;1.33;0.95;;;13.10;99.90;;;;;;4975006;28;20120;-71
2023/10/26 12:35:38;;;;;;;4.13;1.42;;;13.20;99.90;;;;;;4972087;28;20036;-70
2023/10/26 12:38:03;;;;;;;2.67;0.88;;;13.50;99.90;;;;;;4968391;28;20083;-72
2023/10/26 12:40:29;;;;;;;1.75;1.20;;;13.80;99.90;;;;;;4953854;28;20451;-71
2023/10/26 12:42:57;;;;;;;1.38;0.88;;;14.00;99.90;;;;;;4953112;28;20047;-71
2023/10/26 12:45:23;;;;;;;3.00;0.93;;;14.00;99.90;;;;;;4954924;28;20380;-72
2023/10/26 12:47:49;;;;;;;1.63;0.75;;;13.90;99.90;;;;;;4971219;28;20089;-72
2023/10/26 12:50:15;;;;;;;1.30;0.98;;;13.70;99.90;;;;;;4969155;28;20047;-72